sensor_id;sensor_type;location;lat;lon;timestamp;P1;durP1;ratioP1;P2;durP2;ratioP2
60464;SDS011;46314;52.392;9.758;2023-04-19T00:00:31;5.97;;;4.35;;
60464;SDS011;46314;52.392;9.758;2023-04-19T00:02:57;5.13;;;4.53;;
60464;SDS011;46314;52.392;9.758;2023-04-19T00:05:24;4.70;;;3.80;;
60464;SDS011;46314;52.392;9.758;2023-04-19T00:07:50;6.28;;;4.13;;
60464;SDS011;46314;52.392;9.758;2023-04-19T00:10:17;7.32;;;4.43;;
60464;SDS011;46314;52.392;9.758;2023-04-19T00:12:45;5.00;;;4.15;;
60464;SDS011;46314;52.392;9.758;2023-04-19T00:15:11;5.55;;;3.83;;
60464;SDS011;46314;52.392;9.758;2023-04-19T00:17:38;7.13;;;4.95;;
60464;SDS011;46314;52.392;9.758;2023-04-19T00:20:05;5.90;;;4.00;;
60464;SDS011;46314;52.392;9.758;2023-04-19T00:22:31;6.57;;;3.95;;
60464;SDS011;46314;52.392;9.758;2023-04-19T00:24:58;9.48;;;4.15;;
60464;SDS011;46314;52.392;9.758;2023-04-19T00:27:24;7.68;;;4.13;;
60464;SDS011;46314;52.392;9.758;2023-04-19T00:29:52;7.15;;;4.10;;
60464;SDS011;46314;52.392;9.758;2023-04-19T00:32:18;6.05;;;4.15;;
60464;SDS011;46314;52.392;9.758;2023-04-19T00:34:45;5.50;;;3.83;;
60464;SDS011;46314;52.392;9.758;2023-04-19T00:37:11;6.80;;;3.40;;
60464;SDS011;46314;52.392;9.758;2023-04-19T00:39:38;5.40;;;3.95;;
60464;SDS011;46314;52.392;9.758;2023-04-19T00:42:04;5.65;;;3.72;;
60464;SDS011;46314;52.392;9.758;2023-04-19T00:44:31;5.03;;;3.72;;
60464;SDS011;46314;52.392;9.758;2023-04-19T00:46:58;5.28;;;3.97;;
60464;SDS011;46314;52.392;9.758;2023-04-19T00:49:25;7.50;;;3.80;;
60464;SDS011;46314;52.392;9.758;2023-04-19T00:51:52;6.13;;;3.95;;
60464;SDS011;46314;52.392;9.758;2023-04-19T00:54:19;4.30;;;3.63;;
60464;SDS011;46314;52.392;9.758;2023-04-19T00:56:46;5.13;;;3.38;;
60464;SDS011;46314;52.392;9.758;2023-04-19T00:59:13;5.70;;;3.92;;
60464;SDS011;46314;52.392;9.758;2023-04-19T01:01:40;5.70;;;3.70;;
60464;SDS011;46314;52.392;9.758;2023-04-19T01:04:08;5.97;;;3.60;;
60464;SDS011;46314;52.392;9.758;2023-04-19T01:06:35;6.70;;;3.47;;
60464;SDS011;46314;52.392;9.758;2023-04-19T01:09:01;6.03;;;3.55;;
60464;SDS011;46314;52.392;9.758;2023-04-19T01:11:28;6.57;;;3.53;;
60464;SDS011;46314;52.392;9.758;2023-04-19T01:13:54;5.53;;;3.20;;
60464;SDS011;46314;52.392;9.758;2023-04-19T01:16:21;5.57;;;3.58;;
60464;SDS011;46314;52.392;9.758;2023-04-19T01:18:48;6.05;;;3.30;;
60464;SDS011;46314;52.392;9.758;2023-04-19T01:21:16;5.55;;;3.33;;
60464;SDS011;46314;52.392;9.758;2023-04-19T01:23:43;7.57;;;3.67;;
60464;SDS011;46314;52.392;9.758;2023-04-19T01:26:10;7.28;;;4.57;;
60464;SDS011;46314;52.392;9.758;2023-04-19T01:28:36;4.47;;;3.53;;
60464;SDS011;46314;52.392;9.758;2023-04-19T01:31:03;4.57;;;3.90;;
60464;SDS011;46314;52.392;9.758;2023-04-19T01:33:29;6.20;;;3.65;;
60464;SDS011;46314;52.392;9.758;2023-04-19T01:35:56;5.47;;;3.47;;
60464;SDS011;46314;52.392;9.758;2023-04-19T01:38:22;6.15;;;3.10;;
60464;SDS011;46314;52.392;9.758;2023-04-19T01:40:50;5.80;;;3.65;;
60464;SDS011;46314;52.392;9.758;2023-04-19T01:43:17;6.32;;;3.60;;
60464;SDS011;46314;52.392;9.758;2023-04-19T01:45:43;8.10;;;3.90;;
60464;SDS011;46314;52.392;9.758;2023-04-19T01:48:09;5.13;;;3.67;;
60464;SDS011;46314;52.392;9.758;2023-04-19T01:50:36;5.93;;;3.45;;
60464;SDS011;46314;52.392;9.758;2023-04-19T01:53:02;7.22;;;4.20;;
60464;SDS011;46314;52.392;9.758;2023-04-19T01:55:29;6.35;;;3.90;;
60464;SDS011;46314;52.392;9.758;2023-04-19T01:57:56;5.10;;;3.20;;
60464;SDS011;46314;52.392;9.758;2023-04-19T02:00:23;6.35;;;3.38;;
60464;SDS011;46314;52.392;9.758;2023-04-19T02:02:50;6.90;;;3.53;;
60464;SDS011;46314;52.392;9.758;2023-04-19T02:05:16;4.90;;;3.42;;
60464;SDS011;46314;52.392;9.758;2023-04-19T02:07:43;5.82;;;3.03;;
60464;SDS011;46314;52.392;9.758;2023-04-19T02:10:10;3.90;;;3.00;;
60464;SDS011;46314;52.392;9.758;2023-04-19T02:12:36;7.13;;;3.35;;
60464;SDS011;46314;52.392;9.758;2023-04-19T02:15:05;4.30;;;3.15;;
60464;SDS011;46314;52.392;9.758;2023-04-19T02:17:32;7.10;;;3.13;;
60464;SDS011;46314;52.392;9.758;2023-04-19T02:19:59;5.60;;;3.95;;
60464;SDS011;46314;52.392;9.758;2023-04-19T02:22:25;4.97;;;3.28;;
60464;SDS011;46314;52.392;9.758;2023-04-19T02:24:52;4.45;;;2.75;;
60464;SDS011;46314;52.392;9.758;2023-04-19T02:27:18;4.65;;;3.30;;
60464;SDS011;46314;52.392;9.758;2023-04-19T02:29:45;6.50;;;4.22;;
60464;SDS011;46314;52.392;9.758;2023-04-19T02:32:12;7.40;;;3.15;;
60464;SDS011;46314;52.392;9.758;2023-04-19T02:34:39;5.00;;;3.17;;
60464;SDS011;46314;52.392;9.758;2023-04-19T02:37:05;6.55;;;3.58;;
60464;SDS011;46314;52.392;9.758;2023-04-19T02:39:32;8.70;;;4.00;;
60464;SDS011;46314;52.392;9.758;2023-04-19T02:41:58;6.53;;;3.50;;
60464;SDS011;46314;52.392;9.758;2023-04-19T02:44:24;5.95;;;3.30;;
60464;SDS011;46314;52.392;9.758;2023-04-19T02:46:51;6.53;;;3.85;;
60464;SDS011;46314;52.392;9.758;2023-04-19T02:49:19;5.90;;;3.67;;
60464;SDS011;46314;52.392;9.758;2023-04-19T02:51:46;3.70;;;2.78;;
60464;SDS011;46314;52.392;9.758;2023-04-19T02:54:12;6.15;;;3.05;;
60464;SDS011;46314;52.392;9.758;2023-04-19T02:56:39;5.40;;;3.30;;
60464;SDS011;46314;52.392;9.758;2023-04-19T02:59:06;7.38;;;3.45;;
60464;SDS011;46314;52.392;9.758;2023-04-19T03:01:32;4.75;;;3.50;;
60464;SDS011;46314;52.392;9.758;2023-04-19T03:03:59;5.95;;;3.72;;
60464;SDS011;46314;52.392;9.758;2023-04-19T03:06:27;8.35;;;3.95;;
60464;SDS011;46314;52.392;9.758;2023-04-19T03:08:53;5.32;;;3.33;;
60464;SDS011;46314;52.392;9.758;2023-04-19T03:11:20;4.80;;;3.05;;
60464;SDS011;46314;52.392;9.758;2023-04-19T03:13:46;3.70;;;2.88;;
60464;SDS011;46314;52.392;9.758;2023-04-19T03:16:12;5.35;;;3.40;;
60464;SDS011;46314;52.392;9.758;2023-04-19T03:18:39;6.13;;;3.13;;
60464;SDS011;46314;52.392;9.758;2023-04-19T03:21:05;6.30;;;3.65;;
60464;SDS011;46314;52.392;9.758;2023-04-19T03:23:33;4.07;;;2.78;;
60464;SDS011;46314;52.392;9.758;2023-04-19T03:25:59;4.93;;;3.05;;
60464;SDS011;46314;52.392;9.758;2023-04-19T03:28:26;4.85;;;3.50;;
60464;SDS011;46314;52.392;9.758;2023-04-19T03:30:53;5.63;;;3.35;;
60464;SDS011;46314;52.392;9.758;2023-04-19T03:33:19;4.28;;;3.08;;
60464;SDS011;46314;52.392;9.758;2023-04-19T03:35:46;3.95;;;3.30;;
60464;SDS011;46314;52.392;9.758;2023-04-19T03:38:12;5.22;;;3.58;;
60464;SDS011;46314;52.392;9.758;2023-04-19T03:40:40;6.07;;;3.13;;
60464;SDS011;46314;52.392;9.758;2023-04-19T03:43:06;4.47;;;3.10;;
60464;SDS011;46314;52.392;9.758;2023-04-19T03:45:33;4.50;;;3.53;;
60464;SDS011;46314;52.392;9.758;2023-04-19T03:47:59;6.40;;;3.78;;
60464;SDS011;46314;52.392;9.758;2023-04-19T03:50:28;3.92;;;3.13;;
60464;SDS011;46314;52.392;9.758;2023-04-19T03:52:54;4.63;;;3.20;;
60464;SDS011;46314;52.392;9.758;2023-04-19T03:55:21;5.50;;;3.67;;
60464;SDS011;46314;52.392;9.758;2023-04-19T03:57:48;6.95;;;3.88;;
60464;SDS011;46314;52.392;9.758;2023-04-19T04:00:15;3.88;;;3.38;;
60464;SDS011;46314;52.392;9.758;2023-04-19T04:02:42;5.68;;;3.20;;
60464;SDS011;46314;52.392;9.758;2023-04-19T04:05:09;4.85;;;3.45;;
60464;SDS011;46314;52.392;9.758;2023-04-19T04:07:35;6.93;;;3.47;;
60464;SDS011;46314;52.392;9.758;2023-04-19T04:10:02;5.43;;;3.65;;
60464;SDS011;46314;52.392;9.758;2023-04-19T04:12:29;7.63;;;4.00;;
60464;SDS011;46314;52.392;9.758;2023-04-19T04:14:57;8.85;;;4.05;;
60464;SDS011;46314;52.392;9.758;2023-04-19T04:17:23;4.07;;;3.15;;
60464;SDS011;46314;52.392;9.758;2023-04-19T04:19:50;13.50;;;4.05;;
60464;SDS011;46314;52.392;9.758;2023-04-19T04:22:16;6.40;;;3.08;;
60464;SDS011;46314;52.392;9.758;2023-04-19T04:24:42;7.05;;;3.92;;
60464;SDS011;46314;52.392;9.758;2023-04-19T04:27:09;6.00;;;3.17;;
60464;SDS011;46314;52.392;9.758;2023-04-19T04:29:36;4.20;;;3.50;;
60464;SDS011;46314;52.392;9.758;2023-04-19T04:32:04;4.05;;;2.83;;
60464;SDS011;46314;52.392;9.758;2023-04-19T04:34:32;6.28;;;3.08;;
60464;SDS011;46314;52.392;9.758;2023-04-19T04:36:59;3.65;;;3.10;;
60464;SDS011;46314;52.392;9.758;2023-04-19T04:39:25;5.22;;;3.20;;
60464;SDS011;46314;52.392;9.758;2023-04-19T04:41:51;5.10;;;2.67;;
60464;SDS011;46314;52.392;9.758;2023-04-19T04:44:18;4.47;;;3.00;;
60464;SDS011;46314;52.392;9.758;2023-04-19T04:46:44;7.30;;;3.33;;
60464;SDS011;46314;52.392;9.758;2023-04-19T04:49:12;7.40;;;3.22;;
60464;SDS011;46314;52.392;9.758;2023-04-19T04:51:39;4.03;;;2.75;;
60464;SDS011;46314;52.392;9.758;2023-04-19T04:54:05;5.57;;;3.15;;
60464;SDS011;46314;52.392;9.758;2023-04-19T04:56:31;5.70;;;3.03;;
60464;SDS011;46314;52.392;9.758;2023-04-19T04:58:58;7.15;;;3.17;;
60464;SDS011;46314;52.392;9.758;2023-04-19T05:01:24;4.55;;;3.33;;
60464;SDS011;46314;52.392;9.758;2023-04-19T05:03:51;5.78;;;3.33;;
60464;SDS011;46314;52.392;9.758;2023-04-19T05:06:19;3.75;;;2.75;;
60464;SDS011;46314;52.392;9.758;2023-04-19T05:08:45;4.85;;;3.28;;
60464;SDS011;46314;52.392;9.758;2023-04-19T05:11:11;7.05;;;3.53;;
60464;SDS011;46314;52.392;9.758;2023-04-19T05:13:38;5.28;;;3.65;;
60464;SDS011;46314;52.392;9.758;2023-04-19T05:16:04;4.13;;;3.05;;
60464;SDS011;46314;52.392;9.758;2023-04-19T05:18:31;4.95;;;3.42;;
60464;SDS011;46314;52.392;9.758;2023-04-19T05:20:58;13.38;;;3.78;;
60464;SDS011;46314;52.392;9.758;2023-04-19T05:23:25;4.90;;;3.38;;
60464;SDS011;46314;52.392;9.758;2023-04-19T05:25:52;4.97;;;3.22;;
60464;SDS011;46314;52.392;9.758;2023-04-19T05:28:18;6.00;;;3.10;;
60464;SDS011;46314;52.392;9.758;2023-04-19T05:30:44;4.55;;;3.22;;
60464;SDS011;46314;52.392;9.758;2023-04-19T05:33:11;3.42;;;2.78;;
60464;SDS011;46314;52.392;9.758;2023-04-19T05:35:37;5.65;;;2.75;;
60464;SDS011;46314;52.392;9.758;2023-04-19T05:38:04;7.63;;;3.55;;
60464;SDS011;46314;52.392;9.758;2023-04-19T05:40:32;5.50;;;2.97;;
60464;SDS011;46314;52.392;9.758;2023-04-19T05:42:58;4.68;;;3.05;;
60464;SDS011;46314;52.392;9.758;2023-04-19T05:45:25;5.30;;;3.28;;
60464;SDS011;46314;52.392;9.758;2023-04-19T05:47:51;6.65;;;3.63;;
60464;SDS011;46314;52.392;9.758;2023-04-19T05:50:18;10.90;;;3.17;;
60464;SDS011;46314;52.392;9.758;2023-04-19T05:52:45;7.10;;;3.70;;
60464;SDS011;46314;52.392;9.758;2023-04-19T05:55:11;5.70;;;3.35;;
60464;SDS011;46314;52.392;9.758;2023-04-19T05:57:39;4.30;;;2.65;;
60464;SDS011;46314;52.392;9.758;2023-04-19T06:00:05;4.68;;;3.45;;
60464;SDS011;46314;52.392;9.758;2023-04-19T06:02:33;8.50;;;3.63;;
60464;SDS011;46314;52.392;9.758;2023-04-19T06:04:59;3.97;;;3.50;;
60464;SDS011;46314;52.392;9.758;2023-04-19T06:07:33;4.82;;;2.95;;
60464;SDS011;46314;52.392;9.758;2023-04-19T06:10:09;5.75;;;3.20;;
60464;SDS011;46314;52.392;9.758;2023-04-19T06:12:35;7.13;;;3.42;;
60464;SDS011;46314;52.392;9.758;2023-04-19T06:15:04;4.47;;;2.90;;
60464;SDS011;46314;52.392;9.758;2023-04-19T06:17:32;4.30;;;3.03;;
60464;SDS011;46314;52.392;9.758;2023-04-19T06:19:58;6.18;;;3.35;;
60464;SDS011;46314;52.392;9.758;2023-04-19T06:22:24;3.55;;;2.42;;
60464;SDS011;46314;52.392;9.758;2023-04-19T06:24:51;4.57;;;2.78;;
60464;SDS011;46314;52.392;9.758;2023-04-19T06:27:17;4.72;;;2.60;;
60464;SDS011;46314;52.392;9.758;2023-04-19T06:29:44;5.05;;;2.72;;
60464;SDS011;46314;52.392;9.758;2023-04-19T06:32:11;5.85;;;2.67;;
60464;SDS011;46314;52.392;9.758;2023-04-19T06:34:38;4.00;;;2.35;;
60464;SDS011;46314;52.392;9.758;2023-04-19T06:37:04;5.82;;;2.60;;
60464;SDS011;46314;52.392;9.758;2023-04-19T06:39:31;4.78;;;2.30;;
60464;SDS011;46314;52.392;9.758;2023-04-19T06:41:57;4.72;;;2.50;;
60464;SDS011;46314;52.392;9.758;2023-04-19T06:44:24;7.03;;;2.80;;
60464;SDS011;46314;52.392;9.758;2023-04-19T06:46:50;3.85;;;2.22;;
60464;SDS011;46314;52.392;9.758;2023-04-19T06:49:18;3.30;;;2.30;;
60464;SDS011;46314;52.392;9.758;2023-04-19T06:51:44;3.15;;;2.10;;
60464;SDS011;46314;52.392;9.758;2023-04-19T06:54:11;3.22;;;2.00;;
60464;SDS011;46314;52.392;9.758;2023-04-19T06:56:38;3.60;;;2.40;;
60464;SDS011;46314;52.392;9.758;2023-04-19T06:59:05;4.38;;;2.65;;
60464;SDS011;46314;52.392;9.758;2023-04-19T07:01:32;8.60;;;2.45;;
60464;SDS011;46314;52.392;9.758;2023-04-19T07:03:58;5.97;;;2.13;;
60464;SDS011;46314;52.392;9.758;2023-04-19T07:06:26;3.70;;;2.53;;
60464;SDS011;46314;52.392;9.758;2023-04-19T07:08:52;4.40;;;2.47;;
60464;SDS011;46314;52.392;9.758;2023-04-19T07:11:19;4.53;;;2.17;;
60464;SDS011;46314;52.392;9.758;2023-04-19T07:13:47;3.25;;;2.58;;
60464;SDS011;46314;52.392;9.758;2023-04-19T07:16:15;3.20;;;2.75;;
60464;SDS011;46314;52.392;9.758;2023-04-19T07:18:42;4.38;;;2.00;;
60464;SDS011;46314;52.392;9.758;2023-04-19T07:21:08;3.35;;;2.42;;
60464;SDS011;46314;52.392;9.758;2023-04-19T07:23:36;3.90;;;2.03;;
60464;SDS011;46314;52.392;9.758;2023-04-19T07:26:03;5.95;;;2.25;;
60464;SDS011;46314;52.392;9.758;2023-04-19T07:28:29;5.03;;;2.50;;
60464;SDS011;46314;52.392;9.758;2023-04-19T07:30:56;3.17;;;2.53;;
60464;SDS011;46314;52.392;9.758;2023-04-19T07:33:23;4.10;;;2.80;;
60464;SDS011;46314;52.392;9.758;2023-04-19T07:35:53;3.58;;;2.55;;
60464;SDS011;46314;52.392;9.758;2023-04-19T07:38:19;5.32;;;2.88;;
60464;SDS011;46314;52.392;9.758;2023-04-19T07:40:47;3.90;;;2.40;;
60464;SDS011;46314;52.392;9.758;2023-04-19T07:43:13;3.88;;;2.22;;
60464;SDS011;46314;52.392;9.758;2023-04-19T07:45:40;4.30;;;2.50;;
60464;SDS011;46314;52.392;9.758;2023-04-19T07:48:06;3.63;;;2.00;;
60464;SDS011;46314;52.392;9.758;2023-04-19T07:50:33;3.35;;;1.95;;
60464;SDS011;46314;52.392;9.758;2023-04-19T07:52:59;4.30;;;2.03;;
60464;SDS011;46314;52.392;9.758;2023-04-19T07:55:26;2.92;;;2.13;;
60464;SDS011;46314;52.392;9.758;2023-04-19T07:57:54;2.92;;;2.40;;
60464;SDS011;46314;52.392;9.758;2023-04-19T08:00:20;3.13;;;2.55;;
60464;SDS011;46314;52.392;9.758;2023-04-19T08:02:47;3.17;;;2.40;;
60464;SDS011;46314;52.392;9.758;2023-04-19T08:05:15;5.55;;;2.55;;
60464;SDS011;46314;52.392;9.758;2023-04-19T08:07:42;3.53;;;2.10;;
60464;SDS011;46314;52.392;9.758;2023-04-19T08:10:08;4.65;;;2.53;;
60464;SDS011;46314;52.392;9.758;2023-04-19T08:12:35;4.50;;;2.83;;
60464;SDS011;46314;52.392;9.758;2023-04-19T08:15:17;4.28;;;2.33;;
60464;SDS011;46314;52.392;9.758;2023-04-19T08:18:03;3.95;;;2.63;;
60464;SDS011;46314;52.392;9.758;2023-04-19T08:20:30;2.80;;;2.08;;
60464;SDS011;46314;52.392;9.758;2023-04-19T08:22:57;4.07;;;2.75;;
60464;SDS011;46314;52.392;9.758;2023-04-19T08:25:35;5.28;;;2.58;;
60464;SDS011;46314;52.392;9.758;2023-04-19T08:28:02;7.45;;;3.22;;
60464;SDS011;46314;52.392;9.758;2023-04-19T08:30:30;6.07;;;2.72;;
60464;SDS011;46314;52.392;9.758;2023-04-19T08:32:57;4.88;;;2.92;;
60464;SDS011;46314;52.392;9.758;2023-04-19T08:35:23;5.07;;;2.40;;
60464;SDS011;46314;52.392;9.758;2023-04-19T08:37:50;3.03;;;2.58;;
60464;SDS011;46314;52.392;9.758;2023-04-19T08:40:17;4.57;;;2.70;;
60464;SDS011;46314;52.392;9.758;2023-04-19T08:42:43;3.22;;;2.60;;
60464;SDS011;46314;52.392;9.758;2023-04-19T08:45:10;4.70;;;2.70;;
60464;SDS011;46314;52.392;9.758;2023-04-19T08:47:55;4.82;;;2.30;;
60464;SDS011;46314;52.392;9.758;2023-04-19T08:53:06;2.80;;;2.42;;
60464;SDS011;46314;52.392;9.758;2023-04-19T08:55:50;4.88;;;2.40;;
60464;SDS011;46314;52.392;9.758;2023-04-19T08:58:37;3.03;;;1.95;;
60464;SDS011;46314;52.392;9.758;2023-04-19T09:01:23;8.63;;;2.50;;
60464;SDS011;46314;52.392;9.758;2023-04-19T09:03:54;3.97;;;2.55;;
60464;SDS011;46314;52.392;9.758;2023-04-19T09:06:41;2.38;;;2.17;;
60464;SDS011;46314;52.392;9.758;2023-04-19T09:09:14;3.47;;;2.20;;
60464;SDS011;46314;52.392;9.758;2023-04-19T09:14:28;2.63;;;2.33;;
60464;SDS011;46314;52.392;9.758;2023-04-19T09:17:10;4.30;;;2.53;;
60464;SDS011;46314;52.392;9.758;2023-04-19T09:19:45;3.05;;;2.22;;
60464;SDS011;46314;52.392;9.758;2023-04-19T09:22:12;3.63;;;2.60;;
60464;SDS011;46314;52.392;9.758;2023-04-19T09:24:39;2.83;;;2.17;;
60464;SDS011;46314;52.392;9.758;2023-04-19T09:27:09;5.65;;;2.35;;
60464;SDS011;46314;52.392;9.758;2023-04-19T09:29:35;5.38;;;2.60;;
60464;SDS011;46314;52.392;9.758;2023-04-19T09:32:02;3.70;;;2.33;;
60464;SDS011;46314;52.392;9.758;2023-04-19T09:34:28;5.13;;;2.40;;
60464;SDS011;46314;52.392;9.758;2023-04-19T09:36:56;3.08;;;2.05;;
60464;SDS011;46314;52.392;9.758;2023-04-19T09:39:40;4.40;;;2.38;;
60464;SDS011;46314;52.392;9.758;2023-04-19T09:42:07;4.13;;;2.42;;
60464;SDS011;46314;52.392;9.758;2023-04-19T09:44:34;5.90;;;2.70;;
60464;SDS011;46314;52.392;9.758;2023-04-19T09:47:28;4.03;;;2.10;;
60464;SDS011;46314;52.392;9.758;2023-04-19T09:50:04;3.25;;;2.08;;
60464;SDS011;46314;52.392;9.758;2023-04-19T09:52:49;5.50;;;2.50;;
60464;SDS011;46314;52.392;9.758;2023-04-19T09:55:17;3.53;;;2.33;;
60464;SDS011;46314;52.392;9.758;2023-04-19T09:57:47;3.53;;;2.42;;
60464;SDS011;46314;52.392;9.758;2023-04-19T10:00:14;4.32;;;2.30;;
60464;SDS011;46314;52.392;9.758;2023-04-19T10:02:41;3.35;;;2.38;;
60464;SDS011;46314;52.392;9.758;2023-04-19T10:05:09;4.32;;;2.40;;
60464;SDS011;46314;52.392;9.758;2023-04-19T10:07:46;2.50;;;2.13;;
60464;SDS011;46314;52.392;9.758;2023-04-19T10:10:16;4.07;;;2.33;;
60464;SDS011;46314;52.392;9.758;2023-04-19T10:12:47;3.03;;;2.28;;
60464;SDS011;46314;52.392;9.758;2023-04-19T10:15:36;3.97;;;2.00;;
60464;SDS011;46314;52.392;9.758;2023-04-19T10:18:06;4.30;;;2.40;;
60464;SDS011;46314;52.392;9.758;2023-04-19T10:20:36;3.03;;;2.22;;
60464;SDS011;46314;52.392;9.758;2023-04-19T10:23:06;3.63;;;1.90;;
60464;SDS011;46314;52.392;9.758;2023-04-19T10:25:35;3.78;;;2.03;;
60464;SDS011;46314;52.392;9.758;2023-04-19T10:28:03;4.45;;;2.50;;
60464;SDS011;46314;52.392;9.758;2023-04-19T10:30:29;5.45;;;2.30;;
60464;SDS011;46314;52.392;9.758;2023-04-19T10:32:56;4.22;;;2.33;;
60464;SDS011;46314;52.392;9.758;2023-04-19T10:35:24;7.20;;;3.10;;
60464;SDS011;46314;52.392;9.758;2023-04-19T10:38:00;2.38;;;2.10;;
60464;SDS011;46314;52.392;9.758;2023-04-19T10:43:26;2.85;;;2.05;;
60464;SDS011;46314;52.392;9.758;2023-04-19T10:45:53;7.00;;;2.20;;
60464;SDS011;46314;52.392;9.758;2023-04-19T10:48:30;3.75;;;1.98;;
60464;SDS011;46314;52.392;9.758;2023-04-19T10:50:57;3.15;;;1.80;;
60464;SDS011;46314;52.392;9.758;2023-04-19T10:53:43;3.92;;;1.90;;
60464;SDS011;46314;52.392;9.758;2023-04-19T10:56:19;7.25;;;2.17;;
60464;SDS011;46314;52.392;9.758;2023-04-19T11:01:38;3.08;;;2.05;;
60464;SDS011;46314;52.392;9.758;2023-04-19T11:04:07;5.93;;;2.38;;
60464;SDS011;46314;52.392;9.758;2023-04-19T11:06:34;4.22;;;1.98;;
60464;SDS011;46314;52.392;9.758;2023-04-19T11:09:02;6.72;;;2.50;;
60464;SDS011;46314;52.392;9.758;2023-04-19T11:11:30;5.28;;;2.53;;
60464;SDS011;46314;52.392;9.758;2023-04-19T11:13:58;3.83;;;2.00;;
60464;SDS011;46314;52.392;9.758;2023-04-19T11:16:25;3.17;;;1.92;;
60464;SDS011;46314;52.392;9.758;2023-04-19T11:19:09;3.03;;;2.10;;
60464;SDS011;46314;52.392;9.758;2023-04-19T11:21:40;5.95;;;2.80;;
60464;SDS011;46314;52.392;9.758;2023-04-19T11:24:07;2.63;;;2.22;;
60464;SDS011;46314;52.392;9.758;2023-04-19T11:26:35;4.28;;;2.80;;
60464;SDS011;46314;52.392;9.758;2023-04-19T11:29:01;6.15;;;2.33;;
60464;SDS011;46314;52.392;9.758;2023-04-19T11:31:28;3.28;;;2.28;;
60464;SDS011;46314;52.392;9.758;2023-04-19T11:33:57;2.30;;;2.03;;
60464;SDS011;46314;52.392;9.758;2023-04-19T11:36:24;2.83;;;2.30;;
60464;SDS011;46314;52.392;9.758;2023-04-19T11:38:51;2.72;;;2.33;;
60464;SDS011;46314;52.392;9.758;2023-04-19T11:41:17;4.22;;;2.33;;
60464;SDS011;46314;52.392;9.758;2023-04-19T11:43:45;2.72;;;2.10;;
60464;SDS011;46314;52.392;9.758;2023-04-19T11:46:12;4.50;;;2.25;;
60464;SDS011;46314;52.392;9.758;2023-04-19T11:48:48;3.15;;;2.22;;
60464;SDS011;46314;52.392;9.758;2023-04-19T11:51:16;3.50;;;2.28;;
60464;SDS011;46314;52.392;9.758;2023-04-19T11:53:42;3.75;;;2.42;;
60464;SDS011;46314;52.392;9.758;2023-04-19T11:56:09;4.90;;;2.78;;
60464;SDS011;46314;52.392;9.758;2023-04-19T11:58:35;4.25;;;2.65;;
60464;SDS011;46314;52.392;9.758;2023-04-19T12:01:06;4.93;;;2.67;;
60464;SDS011;46314;52.392;9.758;2023-04-19T12:03:52;3.92;;;2.50;;
60464;SDS011;46314;52.392;9.758;2023-04-19T12:06:21;4.22;;;2.28;;
60464;SDS011;46314;52.392;9.758;2023-04-19T12:08:50;4.80;;;2.40;;
60464;SDS011;46314;52.392;9.758;2023-04-19T12:11:17;5.32;;;2.60;;
60464;SDS011;46314;52.392;9.758;2023-04-19T12:13:45;4.85;;;2.80;;
60464;SDS011;46314;52.392;9.758;2023-04-19T12:16:13;4.38;;;2.53;;
60464;SDS011;46314;52.392;9.758;2023-04-19T12:18:43;3.65;;;2.58;;
60464;SDS011;46314;52.392;9.758;2023-04-19T12:21:12;5.75;;;3.22;;
60464;SDS011;46314;52.392;9.758;2023-04-19T12:23:49;3.35;;;2.88;;
60464;SDS011;46314;52.392;9.758;2023-04-19T12:26:15;4.28;;;2.33;;
60464;SDS011;46314;52.392;9.758;2023-04-19T12:28:42;4.82;;;2.67;;
60464;SDS011;46314;52.392;9.758;2023-04-19T12:31:08;5.22;;;2.78;;
60464;SDS011;46314;52.392;9.758;2023-04-19T12:33:36;3.97;;;2.63;;
60464;SDS011;46314;52.392;9.758;2023-04-19T12:36:03;6.68;;;2.70;;
60464;SDS011;46314;52.392;9.758;2023-04-19T12:38:29;4.55;;;2.75;;
60464;SDS011;46314;52.392;9.758;2023-04-19T12:40:56;4.10;;;2.30;;
60464;SDS011;46314;52.392;9.758;2023-04-19T12:43:22;5.38;;;2.55;;
60464;SDS011;46314;52.392;9.758;2023-04-19T12:45:48;3.22;;;2.58;;
60464;SDS011;46314;52.392;9.758;2023-04-19T12:48:15;4.57;;;2.35;;
60464;SDS011;46314;52.392;9.758;2023-04-19T12:50:43;4.95;;;2.95;;
60464;SDS011;46314;52.392;9.758;2023-04-19T12:53:09;3.00;;;2.60;;
60464;SDS011;46314;52.392;9.758;2023-04-19T12:55:36;5.43;;;2.67;;
60464;SDS011;46314;52.392;9.758;2023-04-19T12:58:02;4.03;;;2.22;;
60464;SDS011;46314;52.392;9.758;2023-04-19T13:00:29;4.45;;;2.92;;
60464;SDS011;46314;52.392;9.758;2023-04-19T13:02:55;5.40;;;2.60;;
60464;SDS011;46314;52.392;9.758;2023-04-19T13:05:22;7.20;;;2.45;;
60464;SDS011;46314;52.392;9.758;2023-04-19T13:07:49;3.78;;;3.28;;
60464;SDS011;46314;52.392;9.758;2023-04-19T13:10:16;3.67;;;2.53;;
60464;SDS011;46314;52.392;9.758;2023-04-19T13:12:42;4.95;;;2.90;;
60464;SDS011;46314;52.392;9.758;2023-04-19T13:15:09;3.80;;;3.00;;
60464;SDS011;46314;52.392;9.758;2023-04-19T13:17:36;4.97;;;2.67;;
60464;SDS011;46314;52.392;9.758;2023-04-19T13:20:03;7.75;;;4.32;;
60464;SDS011;46314;52.392;9.758;2023-04-19T13:22:30;4.75;;;2.80;;
60464;SDS011;46314;52.392;9.758;2023-04-19T13:24:57;5.63;;;3.40;;
60464;SDS011;46314;52.392;9.758;2023-04-19T13:27:24;9.57;;;3.17;;
60464;SDS011;46314;52.392;9.758;2023-04-19T13:29:50;7.32;;;2.90;;
60464;SDS011;46314;52.392;9.758;2023-04-19T13:32:16;8.02;;;3.40;;
60464;SDS011;46314;52.392;9.758;2023-04-19T13:34:43;4.93;;;2.85;;
60464;SDS011;46314;52.392;9.758;2023-04-19T13:37:09;8.02;;;3.95;;
60464;SDS011;46314;52.392;9.758;2023-04-19T13:39:36;6.40;;;3.65;;
60464;SDS011;46314;52.392;9.758;2023-04-19T13:42:04;3.38;;;2.75;;
60464;SDS011;46314;52.392;9.758;2023-04-19T13:44:31;5.55;;;3.50;;
60464;SDS011;46314;52.392;9.758;2023-04-19T13:46:57;3.72;;;3.05;;
60464;SDS011;46314;52.392;9.758;2023-04-19T13:49:24;6.70;;;3.22;;
60464;SDS011;46314;52.392;9.758;2023-04-19T13:51:50;4.95;;;3.63;;
60464;SDS011;46314;52.392;9.758;2023-04-19T13:54:17;5.63;;;3.38;;
60464;SDS011;46314;52.392;9.758;2023-04-19T13:56:45;6.47;;;3.63;;
60464;SDS011;46314;52.392;9.758;2023-04-19T13:59:14;4.65;;;3.75;;
60464;SDS011;46314;52.392;9.758;2023-04-19T14:01:41;6.63;;;3.45;;
60464;SDS011;46314;52.392;9.758;2023-04-19T14:04:07;6.25;;;3.05;;
60464;SDS011;46314;52.392;9.758;2023-04-19T14:06:34;5.80;;;3.25;;
60464;SDS011;46314;52.392;9.758;2023-04-19T14:09:00;9.30;;;3.53;;
60464;SDS011;46314;52.392;9.758;2023-04-19T14:11:27;8.52;;;3.22;;
60464;SDS011;46314;52.392;9.758;2023-04-19T14:13:54;5.60;;;3.45;;
60464;SDS011;46314;52.392;9.758;2023-04-19T14:16:22;3.10;;;2.65;;
60464;SDS011;46314;52.392;9.758;2023-04-19T14:18:48;4.85;;;3.13;;
60464;SDS011;46314;52.392;9.758;2023-04-19T14:21:14;4.22;;;3.08;;
60464;SDS011;46314;52.392;9.758;2023-04-19T14:23:41;5.70;;;3.08;;
60464;SDS011;46314;52.392;9.758;2023-04-19T14:26:07;4.47;;;3.05;;
60464;SDS011;46314;52.392;9.758;2023-04-19T14:28:34;5.30;;;3.00;;
60464;SDS011;46314;52.392;9.758;2023-04-19T14:31:00;4.90;;;3.10;;
60464;SDS011;46314;52.392;9.758;2023-04-19T14:33:28;5.38;;;3.30;;
60464;SDS011;46314;52.392;9.758;2023-04-19T14:35:54;5.68;;;3.50;;
60464;SDS011;46314;52.392;9.758;2023-04-19T14:38:20;3.75;;;3.10;;
60464;SDS011;46314;52.392;9.758;2023-04-19T14:40:47;4.78;;;2.97;;
60464;SDS011;46314;52.392;9.758;2023-04-19T14:43:13;5.18;;;2.67;;
60464;SDS011;46314;52.392;9.758;2023-04-19T14:45:40;3.60;;;2.72;;
60464;SDS011;46314;52.392;9.758;2023-04-19T14:48:06;4.80;;;2.90;;
60464;SDS011;46314;52.392;9.758;2023-04-19T14:50:34;7.13;;;3.25;;
60464;SDS011;46314;52.392;9.758;2023-04-19T14:53:01;4.82;;;2.80;;
60464;SDS011;46314;52.392;9.758;2023-04-19T14:55:27;7.03;;;2.85;;
60464;SDS011;46314;52.392;9.758;2023-04-19T14:57:53;3.72;;;2.85;;
60464;SDS011;46314;52.392;9.758;2023-04-19T15:00:20;6.13;;;2.63;;
60464;SDS011;46314;52.392;9.758;2023-04-19T15:02:46;4.57;;;3.05;;